createdAt,value
2019-03-24T00:01:53.978Z,6.00
2019-03-24T00:04:42.843Z,6.00
2019-03-24T00:07:32.095Z,6.00
2019-03-24T00:10:21.158Z,6.00
2019-03-24T00:13:10.463Z,6.00
2019-03-24T00:15:59.803Z,6.00
2019-03-24T00:18:48.202Z,5.90
2019-03-24T00:21:36.808Z,5.90
2019-03-24T00:24:25.807Z,5.90
2019-03-24T00:27:14.934Z,5.90
2019-03-24T00:30:07.138Z,5.80
2019-03-24T00:32:55.868Z,5.90
2019-03-24T00:35:45.343Z,5.90
2019-03-24T00:38:34.163Z,5.90
2019-03-24T00:41:23.248Z,5.80
2019-03-24T00:44:12.600Z,5.80
2019-03-24T00:47:01.825Z,5.80
2019-03-24T00:49:50.935Z,5.80
2019-03-24T00:52:40.305Z,5.80
2019-03-24T00:55:29.006Z,5.80
2019-03-24T00:58:18.144Z,5.80
2019-03-24T01:01:07.545Z,5.80
2019-03-24T01:03:56.870Z,5.80
2019-03-24T01:06:47.868Z,5.80
2019-03-24T01:09:37.251Z,5.80
2019-03-24T01:12:26.801Z,5.80
2019-03-24T01:15:15.985Z,5.80
2019-03-24T01:18:05.165Z,5.80
2019-03-24T01:20:54.419Z,5.80
2019-03-24T01:23:43.699Z,5.80
2019-03-24T01:26:33.248Z,5.70
2019-03-24T01:29:21.867Z,5.70
2019-03-24T01:32:11.158Z,5.80
2019-03-24T01:35:00.309Z,5.70
2019-03-24T01:37:49.554Z,5.70
2019-03-24T01:40:38.804Z,5.70
2019-03-24T01:43:27.775Z,5.70
2019-03-24T01:46:16.654Z,5.70
2019-03-24T01:49:05.591Z,5.70
2019-03-24T01:51:54.565Z,5.70
2019-03-24T01:54:43.844Z,5.70
2019-03-24T01:57:33.006Z,5.80
2019-03-24T02:00:22.220Z,5.80
2019-03-24T02:03:11.178Z,5.80
2019-03-24T02:06:00.795Z,5.80
2019-03-24T02:08:49.449Z,5.80
2019-03-24T02:11:38.208Z,5.70
2019-03-24T02:14:27.645Z,5.80
2019-03-24T02:17:17.058Z,5.80
2019-03-24T02:20:08.071Z,5.70
2019-03-24T02:22:57.166Z,5.60
2019-03-24T02:25:46.782Z,5.60
2019-03-24T02:28:35.426Z,5.60
2019-03-24T02:31:25.046Z,5.70
2019-03-24T02:34:14.562Z,5.50
2019-03-24T02:37:03.792Z,5.50
2019-03-24T02:39:52.855Z,5.50
2019-03-24T02:42:42.324Z,5.50
2019-03-24T02:45:31.042Z,5.50
2019-03-24T02:48:20.255Z,5.50
2019-03-24T02:51:09.220Z,5.50
2019-03-24T02:53:58.480Z,5.50
2019-03-24T02:56:47.521Z,5.50
2019-03-24T02:59:37.055Z,5.50
2019-03-24T03:02:25.983Z,5.50
2019-03-24T03:05:16.477Z,5.40
2019-03-24T03:08:05.951Z,5.40
2019-03-24T03:10:55.269Z,5.50
2019-03-24T03:13:44.599Z,5.50
2019-03-24T03:16:38.885Z,5.60
2019-03-24T03:19:24.677Z,5.50
2019-03-24T03:22:13.835Z,5.50
2019-03-24T03:25:04.169Z,5.40
2019-03-24T03:27:53.167Z,5.50
2019-03-24T03:30:42.367Z,5.40
2019-03-24T03:33:31.464Z,5.30
2019-03-24T03:36:21.134Z,5.30
2019-03-24T03:39:10.682Z,5.30
2019-03-24T03:41:59.758Z,5.40
2019-03-24T03:44:49.628Z,5.30
2019-03-24T03:47:38.065Z,5.30
2019-03-24T03:50:27.513Z,5.20
2019-03-24T03:53:16.845Z,5.30
2019-03-24T03:56:06.091Z,5.30
2019-03-24T03:58:55.526Z,5.30
2019-03-24T04:01:45.153Z,5.30
2019-03-24T04:04:35.557Z,5.30
2019-03-24T04:07:24.907Z,5.30
2019-03-24T04:10:13.873Z,5.30
2019-03-24T04:13:02.605Z,5.30
2019-03-24T04:15:51.488Z,5.30
2019-03-24T04:18:41.106Z,5.20
2019-03-24T04:21:30.747Z,5.20
2019-03-24T04:24:19.888Z,5.10
2019-03-24T04:27:08.574Z,5.10
2019-03-24T04:29:57.815Z,5.30
2019-03-24T04:32:47.216Z,5.30
2019-03-24T04:35:36.772Z,5.30
2019-03-24T04:38:26.477Z,5.30
2019-03-24T04:41:15.018Z,5.30
2019-03-24T04:44:04.393Z,5.30
2019-03-24T04:46:53.429Z,5.30
2019-03-24T04:49:42.725Z,5.20
2019-03-24T04:52:31.975Z,5.30
2019-03-24T04:55:20.563Z,5.40
2019-03-24T04:58:09.710Z,5.30
2019-03-24T05:00:58.820Z,5.30
2019-03-24T05:03:48.661Z,5.30
2019-03-24T05:06:38.205Z,5.30
2019-03-24T05:09:28.009Z,5.20
2019-03-24T05:12:16.776Z,5.10
2019-03-24T05:15:06.967Z,5.10
2019-03-24T05:17:55.527Z,5.00
2019-03-24T05:20:44.787Z,5.00
2019-03-24T05:23:34.243Z,5.00
2019-03-24T05:26:23.337Z,4.90
2019-03-24T05:29:12.474Z,4.90
2019-03-24T05:32:01.561Z,4.90
2019-03-24T05:34:50.648Z,4.90
2019-03-24T05:37:40.099Z,4.90
2019-03-24T05:40:29.469Z,4.90
2019-03-24T05:43:18.589Z,4.90
2019-03-24T05:46:07.922Z,5.00
2019-03-24T05:48:57.245Z,5.00
2019-03-24T05:51:46.839Z,5.00
2019-03-24T05:54:35.677Z,5.10
2019-03-24T05:57:25.193Z,5.10
2019-03-24T06:00:14.752Z,5.30
2019-03-24T06:03:04.345Z,5.40
2019-03-24T06:05:53.912Z,5.40
2019-03-24T06:08:42.658Z,5.40
2019-03-24T06:11:31.955Z,5.60
2019-03-24T06:14:21.209Z,5.70
2019-03-24T06:17:10.787Z,5.90
2019-03-24T06:19:59.989Z,5.90
2019-03-24T06:22:49.123Z,6.00
2019-03-24T06:25:38.494Z,5.90
2019-03-24T06:28:27.977Z,6.00
2019-03-24T06:31:17.313Z,6.00
2019-03-24T06:34:06.615Z,6.10
2019-03-24T06:36:56.193Z,6.10
2019-03-24T06:39:44.935Z,6.10
2019-03-24T06:42:33.727Z,6.20
2019-03-24T06:45:28.271Z,6.40
2019-03-24T06:48:13.884Z,6.50
2019-03-24T06:51:03.081Z,6.70
2019-03-24T06:53:51.912Z,6.80
2019-03-24T06:56:39.784Z,6.90
2019-03-24T06:59:28.201Z,6.90
2019-03-24T07:02:16.471Z,6.80
2019-03-24T07:05:07.709Z,6.70
2019-03-24T07:07:56.578Z,6.50
2019-03-24T07:10:45.725Z,6.50
2019-03-24T07:13:33.523Z,6.50
2019-03-24T07:16:21.744Z,6.60
2019-03-24T07:19:11.190Z,6.70
2019-03-24T07:22:00.262Z,6.80
2019-03-24T07:24:49.779Z,6.90
2019-03-24T07:27:38.871Z,6.90
2019-03-24T07:30:28.313Z,7.10
2019-03-24T07:33:17.893Z,7.00
2019-03-24T07:36:06.936Z,6.90
2019-03-24T07:38:56.226Z,6.90
2019-03-24T07:41:44.965Z,7.00
2019-03-24T07:44:34.358Z,7.00
2019-03-24T07:47:23.277Z,7.10
2019-03-24T07:50:13.103Z,6.90
2019-03-24T07:53:02.124Z,6.90
2019-03-24T07:55:51.536Z,6.80
2019-03-24T07:58:40.415Z,6.70
2019-03-24T08:01:28.872Z,6.90
2019-03-24T08:04:18.220Z,7.10
2019-03-24T08:07:07.649Z,7.30
2019-03-24T08:09:57.268Z,7.30
2019-03-24T08:12:46.439Z,7.40
2019-03-24T08:15:36.037Z,7.60
2019-03-24T08:18:29.845Z,7.80
2019-03-24T08:21:15.398Z,8.00
2019-03-24T08:24:04.646Z,7.80
2019-03-24T08:26:54.029Z,8.00
2019-03-24T08:29:43.396Z,8.10
2019-03-24T08:32:32.263Z,8.20
2019-03-24T08:35:21.639Z,8.40
2019-03-24T08:38:10.699Z,8.60
2019-03-24T08:41:00.461Z,8.60
2019-03-24T08:43:49.622Z,8.80
2019-03-24T08:46:38.911Z,8.80
2019-03-24T08:49:28.250Z,8.90
2019-03-24T08:52:17.646Z,8.80
2019-03-24T08:55:07.655Z,8.70
2019-03-24T08:57:56.060Z,8.60
2019-03-24T09:00:45.658Z,8.70
2019-03-24T09:03:34.997Z,8.70
2019-03-24T09:06:25.324Z,8.80
2019-03-24T09:09:14.803Z,8.90
2019-03-24T09:12:03.558Z,8.90
2019-03-24T09:14:52.454Z,9.00
2019-03-24T09:17:41.683Z,8.90
2019-03-24T09:20:41.219Z,8.90
2019-03-24T09:23:22.036Z,8.90
2019-03-24T09:26:11.430Z,8.80
2019-03-24T09:29:00.667Z,9.00
2019-03-24T09:31:50.276Z,9.00
2019-03-24T09:34:40.586Z,9.10
2019-03-24T09:37:29.746Z,8.90
2019-03-24T09:40:34.574Z,9.00
2019-03-24T09:43:23.855Z,9.10
2019-03-24T09:46:13.032Z,9.10
2019-03-24T09:49:03.349Z,9.20
2019-03-24T09:51:53.084Z,9.30
2019-03-24T09:54:42.356Z,9.40
2019-03-24T09:57:31.687Z,9.30
2019-03-24T10:00:21.103Z,9.40
2019-03-24T10:03:10.219Z,9.50
2019-03-24T10:05:59.547Z,9.70
2019-03-24T10:08:48.074Z,9.80
2019-03-24T10:11:37.252Z,9.90
2019-03-24T10:14:26.523Z,10.00
2019-03-24T10:17:16.001Z,10.20
2019-03-24T10:20:05.860Z,10.20
2019-03-24T10:22:54.380Z,10.20
2019-03-24T10:25:43.093Z,9.90
2019-03-24T10:28:32.038Z,10.00
2019-03-24T10:31:21.340Z,10.10
2019-03-24T10:34:10.261Z,10.20
2019-03-24T10:36:59.378Z,10.50
2019-03-24T10:39:48.716Z,11.00
2019-03-24T10:42:38.378Z,11.00
2019-03-24T10:45:28.089Z,11.20
2019-03-24T10:48:17.132Z,11.00
2019-03-24T10:51:06.624Z,10.80
2019-03-24T10:53:55.990Z,10.40
2019-03-24T10:56:45.664Z,10.40
2019-03-24T10:59:34.955Z,10.30
2019-03-24T11:02:24.755Z,10.20
2019-03-24T11:05:14.347Z,10.20
2019-03-24T11:08:04.943Z,10.00
2019-03-24T11:10:54.389Z,9.90
2019-03-24T11:13:43.807Z,9.90
2019-03-24T11:16:33.519Z,9.90
2019-03-24T11:19:22.576Z,9.90
2019-03-24T11:22:12.088Z,9.90
2019-03-24T11:25:00.932Z,10.10
2019-03-24T11:27:51.484Z,10.00
2019-03-24T11:30:40.695Z,10.40
2019-03-24T11:33:30.063Z,10.30
2019-03-24T11:36:19.150Z,10.40
2019-03-24T11:39:09.113Z,10.30
2019-03-24T11:41:58.485Z,10.70
2019-03-24T11:44:47.874Z,10.70
2019-03-24T11:47:37.030Z,10.70
2019-03-24T11:50:26.623Z,10.80
2019-03-24T11:53:16.081Z,10.70
2019-03-24T11:56:05.108Z,10.50
2019-03-24T11:58:53.945Z,10.60
2019-03-24T12:01:44.280Z,10.90
2019-03-24T12:04:34.184Z,11.00
2019-03-24T12:07:22.742Z,11.20
2019-03-24T12:10:14.048Z,11.50
2019-03-24T12:13:03.060Z,11.60
2019-03-24T12:15:52.375Z,11.40
2019-03-24T12:18:41.343Z,11.40
2019-03-24T12:21:30.696Z,11.40
2019-03-24T12:24:19.741Z,11.30
2019-03-24T12:27:08.862Z,11.10
2019-03-24T12:29:58.124Z,10.80
2019-03-24T12:32:47.096Z,10.90
2019-03-24T12:35:35.936Z,10.70
2019-03-24T12:38:24.696Z,10.50
2019-03-24T12:41:13.655Z,10.60
2019-03-24T12:44:03.617Z,10.80
2019-03-24T12:46:53.321Z,10.80
2019-03-24T12:49:43.034Z,10.70
2019-03-24T12:52:32.776Z,10.90
2019-03-24T12:55:21.875Z,11.00
2019-03-24T12:58:11.330Z,11.20
2019-03-24T13:01:00.488Z,11.10
2019-03-24T13:03:48.987Z,11.20
2019-03-24T13:06:38.314Z,10.90
2019-03-24T13:09:27.165Z,11.10
2019-03-24T13:12:16.761Z,11.10
2019-03-24T13:15:10.602Z,11.10
2019-03-24T13:18:00.937Z,11.00
2019-03-24T13:20:50.905Z,10.70
2019-03-24T13:23:40.319Z,10.70
2019-03-24T13:26:29.339Z,10.60
2019-03-24T13:29:17.977Z,10.90
2019-03-24T13:32:07.392Z,11.20
2019-03-24T13:34:56.749Z,11.30
2019-03-24T13:37:46.040Z,11.50
2019-03-24T13:40:35.151Z,11.60
2019-03-24T13:43:24.343Z,11.60
2019-03-24T13:46:13.132Z,11.30
2019-03-24T13:49:02.784Z,11.20
2019-03-24T13:51:52.261Z,11.20
2019-03-24T13:54:41.559Z,11.30
2019-03-24T13:57:30.939Z,11.40
2019-03-24T14:00:21.499Z,11.50
2019-03-24T14:03:10.866Z,11.80
2019-03-24T14:06:00.135Z,11.70
2019-03-24T14:08:49.857Z,11.60
2019-03-24T14:11:39.251Z,11.50
2019-03-24T14:14:28.985Z,11.40
2019-03-24T14:17:18.528Z,11.50
2019-03-24T14:20:09.045Z,11.60
2019-03-24T14:22:57.636Z,11.80
2019-03-24T14:25:46.675Z,11.90
2019-03-24T14:28:35.540Z,11.70
2019-03-24T14:31:25.006Z,11.40
2019-03-24T14:34:14.271Z,11.00
2019-03-24T14:37:03.029Z,10.80
2019-03-24T14:39:52.194Z,10.80
2019-03-24T14:42:41.356Z,10.90
2019-03-24T14:45:30.830Z,11.00
2019-03-24T14:48:19.897Z,11.20
2019-03-24T14:51:08.824Z,11.20
2019-03-24T14:53:57.350Z,11.20
2019-03-24T14:56:46.067Z,11.10
2019-03-24T14:59:35.357Z,11.10
2019-03-24T15:02:24.293Z,11.10
2019-03-24T15:05:14.057Z,11.20
2019-03-24T15:08:07.142Z,11.10
2019-03-24T15:10:56.411Z,10.80
2019-03-24T15:13:45.534Z,10.60
2019-03-24T15:16:34.814Z,10.60
2019-03-24T15:19:23.688Z,10.50
2019-03-24T15:22:12.571Z,10.40
2019-03-24T15:25:01.538Z,10.50
2019-03-24T15:27:50.795Z,10.60
2019-03-24T15:30:39.866Z,10.80
2019-03-24T15:33:29.450Z,10.60
2019-03-24T15:36:18.296Z,10.40
2019-03-24T15:39:10.061Z,10.30
2019-03-24T15:41:58.785Z,10.20
2019-03-24T15:44:47.406Z,10.10
2019-03-24T15:47:36.402Z,10.20
2019-03-24T15:50:25.731Z,10.20
2019-03-24T15:53:15.464Z,10.20
2019-03-24T15:56:04.848Z,10.20
2019-03-24T15:58:54.192Z,10.20
2019-03-24T16:01:43.189Z,10.30
2019-03-24T16:04:32.730Z,10.30
2019-03-24T16:07:21.928Z,10.20
2019-03-24T16:10:13.077Z,10.10
2019-03-24T16:13:02.179Z,10.00
2019-03-24T16:15:51.130Z,10.00
2019-03-24T16:18:40.515Z,9.80
2019-03-24T16:21:32.270Z,9.80
2019-03-24T16:24:21.608Z,9.70
2019-03-24T16:27:10.866Z,9.50
2019-03-24T16:30:00.320Z,9.40
2019-03-24T16:32:49.573Z,9.30
2019-03-24T16:35:39.322Z,9.20
2019-03-24T16:38:28.744Z,9.30
2019-03-24T16:41:17.575Z,9.20
2019-03-24T16:44:07.625Z,9.20
2019-03-24T16:46:56.471Z,9.20
2019-03-24T16:49:46.060Z,9.20
2019-03-24T16:52:36.698Z,9.20
2019-03-24T16:55:25.721Z,9.20
2019-03-24T16:58:14.802Z,9.10
2019-03-24T17:01:03.651Z,9.10
2019-03-24T17:03:52.655Z,9.00
2019-03-24T17:06:42.189Z,8.90
2019-03-24T17:09:31.627Z,8.70
2019-03-24T17:12:20.565Z,8.60
2019-03-24T17:15:10.976Z,8.50
2019-03-24T17:17:59.636Z,8.30
2019-03-24T17:20:48.960Z,8.20
2019-03-24T17:23:38.019Z,8.10
2019-03-24T17:26:27.102Z,8.10
2019-03-24T17:29:16.876Z,8.10
2019-03-24T17:32:06.241Z,8.10
2019-03-24T17:34:55.248Z,8.00
2019-03-24T17:37:44.037Z,7.90
2019-03-24T17:40:38.762Z,7.80
2019-03-24T17:43:23.821Z,7.70
2019-03-24T17:46:12.887Z,7.60
2019-03-24T17:49:01.746Z,7.50
2019-03-24T17:52:00.380Z,7.50
2019-03-24T17:54:41.778Z,7.40
2019-03-24T17:57:30.966Z,7.30
2019-03-24T18:00:43.291Z,7.20
2019-03-24T18:03:31.787Z,7.20
2019-03-24T18:06:21.794Z,7.10
2019-03-24T18:09:10.538Z,7.00
2019-03-24T18:11:59.860Z,6.90
2019-03-24T18:14:48.800Z,6.80
2019-03-24T18:17:38.191Z,6.70
2019-03-24T18:20:35.366Z,6.70
2019-03-24T18:23:24.727Z,6.70
2019-03-24T18:26:14.308Z,6.50
2019-03-24T18:29:03.458Z,6.50
2019-03-24T18:31:52.349Z,6.40
2019-03-24T18:34:41.360Z,6.40
2019-03-24T18:37:30.777Z,6.40
2019-03-24T18:40:20.466Z,6.30
2019-03-24T18:43:09.100Z,6.30
2019-03-24T18:45:58.233Z,6.20
2019-03-24T18:48:47.530Z,6.20
2019-03-24T18:51:36.698Z,6.10
2019-03-24T18:54:25.854Z,6.10
2019-03-24T18:57:14.723Z,6.00
2019-03-24T19:00:08.795Z,5.90
2019-03-24T19:02:57.872Z,5.90
2019-03-24T19:05:46.675Z,5.90
2019-03-24T19:08:36.208Z,6.00
2019-03-24T19:11:25.736Z,6.00
2019-03-24T19:14:15.271Z,6.00
2019-03-24T19:17:05.037Z,6.10
2019-03-24T19:19:53.558Z,6.10
2019-03-24T19:22:43.050Z,6.20
2019-03-24T19:25:32.399Z,6.30
2019-03-24T19:28:21.305Z,6.30
2019-03-24T19:31:10.129Z,6.30
2019-03-24T19:33:59.525Z,6.30
2019-03-24T19:36:50.131Z,6.30
2019-03-24T19:39:39.116Z,6.30
2019-03-24T19:42:28.567Z,6.40
2019-03-24T19:45:17.685Z,6.40
2019-03-24T19:48:07.318Z,6.40
2019-03-24T19:50:56.294Z,6.40
2019-03-24T19:53:45.037Z,6.40
2019-03-24T19:56:33.557Z,6.40
2019-03-24T19:59:22.240Z,6.40
2019-03-24T20:02:11.615Z,6.50
2019-03-24T20:05:01.082Z,6.50
2019-03-24T20:07:50.660Z,6.50
2019-03-24T20:10:39.767Z,6.50
2019-03-24T20:13:28.794Z,6.50
2019-03-24T20:16:17.212Z,6.50
2019-03-24T20:19:06.824Z,6.50
2019-03-24T20:21:55.488Z,6.50
2019-03-24T20:24:44.888Z,6.50
2019-03-24T20:27:33.918Z,6.50
2019-03-24T20:30:22.871Z,6.50
2019-03-24T20:33:12.247Z,6.50
2019-03-24T20:36:01.268Z,6.50
2019-03-24T20:38:50.785Z,6.40
2019-03-24T20:41:39.898Z,6.40
2019-03-24T20:44:29.121Z,6.40
2019-03-24T20:47:18.075Z,6.30
2019-03-24T20:50:08.758Z,6.20
2019-03-24T20:53:04.152Z,6.10
2019-03-24T20:55:48.524Z,6.00
2019-03-24T20:58:38.040Z,5.80
2019-03-24T21:01:27.446Z,5.80
2019-03-24T21:04:16.772Z,5.70
2019-03-24T21:07:08.260Z,5.60
2019-03-24T21:09:57.049Z,5.50
2019-03-24T21:12:46.634Z,5.50
2019-03-24T21:15:35.498Z,5.50
2019-03-24T21:18:24.957Z,5.40
2019-03-24T21:21:15.615Z,5.40
2019-03-24T21:24:04.929Z,5.40
2019-03-24T21:26:55.724Z,5.40
2019-03-24T21:29:45.007Z,5.40
2019-03-24T21:32:34.375Z,5.50
2019-03-24T21:35:23.403Z,5.50
2019-03-24T21:38:13.346Z,5.60
2019-03-24T21:41:02.540Z,5.50
2019-03-24T21:43:51.973Z,5.50
2019-03-24T21:46:40.999Z,5.50
2019-03-24T21:49:30.235Z,5.60
2019-03-24T21:52:18.760Z,5.60
2019-03-24T21:55:08.432Z,5.60
2019-03-24T21:57:58.099Z,5.60
2019-03-24T22:00:47.488Z,5.60
2019-03-24T22:03:36.553Z,5.60
2019-03-24T22:06:26.015Z,5.60
2019-03-24T22:09:15.513Z,5.50
2019-03-24T22:12:05.188Z,5.50
2019-03-24T22:14:55.063Z,5.50
2019-03-24T22:17:44.427Z,5.40
2019-03-24T22:20:33.513Z,5.40
2019-03-24T22:23:22.978Z,5.30
2019-03-24T22:26:11.866Z,5.30
2019-03-24T22:29:01.502Z,5.20
2019-03-24T22:31:50.770Z,5.10
2019-03-24T22:34:40.042Z,5.00
2019-03-24T22:37:29.040Z,5.00
2019-03-24T22:40:18.076Z,4.90
2019-03-24T22:43:07.451Z,4.90
2019-03-24T22:45:56.272Z,4.90
2019-03-24T22:48:45.680Z,4.80
2019-03-24T22:51:34.844Z,4.80
2019-03-24T22:54:24.215Z,4.80
2019-03-24T22:57:13.327Z,4.70
2019-03-24T23:00:02.554Z,4.70
2019-03-24T23:02:52.034Z,4.70
2019-03-24T23:05:40.953Z,4.60
2019-03-24T23:08:30.566Z,4.60
2019-03-24T23:11:19.870Z,4.60
2019-03-24T23:14:09.304Z,4.60
2019-03-24T23:16:58.333Z,4.50
2019-03-24T23:19:47.843Z,4.60
2019-03-24T23:22:36.929Z,4.60
2019-03-24T23:25:26.285Z,4.70
2019-03-24T23:28:15.251Z,4.80
2019-03-24T23:31:04.924Z,4.90
2019-03-24T23:33:53.453Z,5.00
2019-03-24T23:36:43.051Z,5.10
2019-03-24T23:39:32.118Z,5.20
2019-03-24T23:42:21.416Z,5.20
2019-03-24T23:45:11.471Z,5.20
2019-03-24T23:48:00.355Z,5.20
2019-03-24T23:50:50.078Z,5.20
2019-03-24T23:53:38.667Z,5.20
2019-03-24T23:56:28.259Z,5.20
2019-03-24T23:59:17.302Z,5.20
